sensor_id;sensor_type;location;lat;lon;timestamp;P1;durP1;ratioP1;P2;durP2;ratioP2
69621;SDS011;56841;55.964;37.674;2022-09-09T00:04:30;5.60;;;2.40;;
69621;SDS011;56841;55.964;37.674;2022-09-09T00:10:43;5.60;;;2.50;;
69621;SDS011;56841;55.964;37.674;2022-09-09T00:12:57;5.15;;;2.58;;
69621;SDS011;56841;55.964;37.674;2022-09-09T00:15:35;5.78;;;2.28;;
69621;SDS011;56841;55.964;37.674;2022-09-09T00:18:13;5.30;;;2.30;;
69621;SDS011;56841;55.964;37.674;2022-09-09T00:20:49;4.63;;;2.33;;
69621;SDS011;56841;55.964;37.674;2022-09-09T00:23:37;5.10;;;2.35;;
69621;SDS011;56841;55.964;37.674;2022-09-09T00:26:07;5.20;;;2.25;;
69621;SDS011;56841;55.964;37.674;2022-09-09T00:31:23;5.57;;;2.13;;
69621;SDS011;56841;55.964;37.674;2022-09-09T00:33:52;5.25;;;2.38;;
69621;SDS011;56841;55.964;37.674;2022-09-09T00:36:21;5.28;;;2.20;;
69621;SDS011;56841;55.964;37.674;2022-09-09T00:38:57;5.00;;;2.30;;
69621;SDS011;56841;55.964;37.674;2022-09-09T00:44:02;5.30;;;2.30;;
69621;SDS011;56841;55.964;37.674;2022-09-09T00:46:50;4.25;;;2.17;;
69621;SDS011;56841;55.964;37.674;2022-09-09T00:57:44;5.00;;;2.10;;
69621;SDS011;56841;55.964;37.674;2022-09-09T01:00:22;6.03;;;1.90;;
69621;SDS011;56841;55.964;37.674;2022-09-09T01:07:45;3.88;;;1.70;;
69621;SDS011;56841;55.964;37.674;2022-09-09T01:13:24;4.72;;;1.83;;
69621;SDS011;56841;55.964;37.674;2022-09-09T01:15:50;5.28;;;2.08;;
69621;SDS011;56841;55.964;37.674;2022-09-09T01:18:23;6.47;;;2.10;;
69621;SDS011;56841;55.964;37.674;2022-09-09T01:27:17;3.72;;;1.90;;
69621;SDS011;56841;55.964;37.674;2022-09-09T01:29:45;4.65;;;2.20;;
69621;SDS011;56841;55.964;37.674;2022-09-09T01:38:06;4.45;;;2.00;;
69621;SDS011;56841;55.964;37.674;2022-09-09T01:40:33;4.57;;;2.17;;
69621;SDS011;56841;55.964;37.674;2022-09-09T01:42:59;4.30;;;2.10;;
69621;SDS011;56841;55.964;37.674;2022-09-09T01:45:25;4.47;;;2.20;;
69621;SDS011;56841;55.964;37.674;2022-09-09T01:47:52;4.70;;;2.10;;
69621;SDS011;56841;55.964;37.674;2022-09-09T01:50:37;4.35;;;2.10;;
69621;SDS011;56841;55.964;37.674;2022-09-09T01:53:03;5.97;;;2.20;;
69621;SDS011;56841;55.964;37.674;2022-09-09T01:55:33;5.05;;;2.22;;
69621;SDS011;56841;55.964;37.674;2022-09-09T01:58:23;4.22;;;2.22;;
69621;SDS011;56841;55.964;37.674;2022-09-09T02:01:06;4.32;;;2.17;;
69621;SDS011;56841;55.964;37.674;2022-09-09T02:03:34;6.40;;;2.53;;
69621;SDS011;56841;55.964;37.674;2022-09-09T02:06:25;4.68;;;2.28;;
69621;SDS011;56841;55.964;37.674;2022-09-09T02:09:07;4.10;;;2.05;;
69621;SDS011;56841;55.964;37.674;2022-09-09T02:11:37;4.72;;;2.17;;
69621;SDS011;56841;55.964;37.674;2022-09-09T02:14:22;5.60;;;2.20;;
69621;SDS011;56841;55.964;37.674;2022-09-09T02:16:52;5.40;;;2.13;;
69621;SDS011;56841;55.964;37.674;2022-09-09T02:19:55;4.68;;;2.13;;
69621;SDS011;56841;55.964;37.674;2022-09-09T02:22:57;4.53;;;2.35;;
69621;SDS011;56841;55.964;37.674;2022-09-09T02:25:25;5.53;;;2.42;;
69621;SDS011;56841;55.964;37.674;2022-09-09T02:28:06;4.63;;;2.25;;
69621;SDS011;56841;55.964;37.674;2022-09-09T02:30:35;4.85;;;2.20;;
69621;SDS011;56841;55.964;37.674;2022-09-09T02:33:04;6.90;;;2.30;;
69621;SDS011;56841;55.964;37.674;2022-09-09T02:35:45;4.32;;;2.00;;
69621;SDS011;56841;55.964;37.674;2022-09-09T02:38:14;4.78;;;2.13;;
69621;SDS011;56841;55.964;37.674;2022-09-09T02:40:51;4.25;;;2.13;;
69621;SDS011;56841;55.964;37.674;2022-09-09T02:43:17;6.10;;;2.50;;
69621;SDS011;56841;55.964;37.674;2022-09-09T02:46:27;5.97;;;2.25;;
69621;SDS011;56841;55.964;37.674;2022-09-09T02:48:43;4.85;;;2.15;;
69621;SDS011;56841;55.964;37.674;2022-09-09T02:56:22;5.00;;;2.40;;
69621;SDS011;56841;55.964;37.674;2022-09-09T02:58:54;4.97;;;2.10;;
69621;SDS011;56841;55.964;37.674;2022-09-09T03:01:21;5.38;;;2.03;;
69621;SDS011;56841;55.964;37.674;2022-09-09T03:03:47;4.93;;;2.15;;
69621;SDS011;56841;55.964;37.674;2022-09-09T03:06:15;4.75;;;2.13;;
69621;SDS011;56841;55.964;37.674;2022-09-09T03:08:45;4.35;;;2.00;;
69621;SDS011;56841;55.964;37.674;2022-09-09T03:11:11;4.97;;;2.17;;
69621;SDS011;56841;55.964;37.674;2022-09-09T03:13:40;3.75;;;1.77;;
69621;SDS011;56841;55.964;37.674;2022-09-09T03:16:06;4.82;;;2.17;;
69621;SDS011;56841;55.964;37.674;2022-09-09T03:18:38;4.50;;;2.08;;
69621;SDS011;56841;55.964;37.674;2022-09-09T03:21:04;4.32;;;2.20;;
69621;SDS011;56841;55.964;37.674;2022-09-09T03:23:30;4.43;;;2.22;;
69621;SDS011;56841;55.964;37.674;2022-09-09T03:25:59;4.55;;;2.05;;
69621;SDS011;56841;55.964;37.674;2022-09-09T03:28:34;4.32;;;2.17;;
69621;SDS011;56841;55.964;37.674;2022-09-09T03:31:02;6.38;;;2.38;;
69621;SDS011;56841;55.964;37.674;2022-09-09T03:36:03;5.88;;;2.30;;
69621;SDS011;56841;55.964;37.674;2022-09-09T03:38:29;5.00;;;2.40;;
69621;SDS011;56841;55.964;37.674;2022-09-09T03:40:55;5.65;;;2.28;;
69621;SDS011;56841;55.964;37.674;2022-09-09T03:43:28;4.30;;;2.15;;
69621;SDS011;56841;55.964;37.674;2022-09-09T03:45:55;4.07;;;2.00;;
69621;SDS011;56841;55.964;37.674;2022-09-09T03:48:23;5.22;;;1.95;;
69621;SDS011;56841;55.964;37.674;2022-09-09T03:50:52;5.38;;;2.20;;
69621;SDS011;56841;55.964;37.674;2022-09-09T03:53:20;5.55;;;1.90;;
69621;SDS011;56841;55.964;37.674;2022-09-09T03:55:52;4.28;;;2.10;;
69621;SDS011;56841;55.964;37.674;2022-09-09T03:58:22;4.90;;;2.10;;
69621;SDS011;56841;55.964;37.674;2022-09-09T04:01:05;3.75;;;2.00;;
69621;SDS011;56841;55.964;37.674;2022-09-09T04:03:38;5.30;;;2.10;;
69621;SDS011;56841;55.964;37.674;2022-09-09T04:06:07;4.18;;;2.10;;
69621;SDS011;56841;55.964;37.674;2022-09-09T04:08:35;6.35;;;1.90;;
69621;SDS011;56841;55.964;37.674;2022-09-09T04:11:03;4.75;;;1.70;;
69621;SDS011;56841;55.964;37.674;2022-09-09T04:13:36;4.32;;;1.90;;
69621;SDS011;56841;55.964;37.674;2022-09-09T04:16:06;3.20;;;1.55;;
69621;SDS011;56841;55.964;37.674;2022-09-09T04:18:35;4.80;;;2.00;;
69621;SDS011;56841;55.964;37.674;2022-09-09T04:21:01;3.97;;;2.03;;
69621;SDS011;56841;55.964;37.674;2022-09-09T04:23:29;3.25;;;1.70;;
69621;SDS011;56841;55.964;37.674;2022-09-09T04:25:57;3.50;;;1.80;;
69621;SDS011;56841;55.964;37.674;2022-09-09T04:28:25;3.30;;;1.60;;
69621;SDS011;56841;55.964;37.674;2022-09-09T04:31:03;5.82;;;1.80;;
69621;SDS011;56841;55.964;37.674;2022-09-09T04:33:30;3.20;;;1.63;;
69621;SDS011;56841;55.964;37.674;2022-09-09T04:35:57;4.40;;;1.98;;
69621;SDS011;56841;55.964;37.674;2022-09-09T04:38:24;3.15;;;1.65;;
69621;SDS011;56841;55.964;37.674;2022-09-09T04:40:51;4.22;;;1.80;;
69621;SDS011;56841;55.964;37.674;2022-09-09T04:43:20;4.50;;;1.50;;
69621;SDS011;56841;55.964;37.674;2022-09-09T04:45:47;3.97;;;1.70;;
69621;SDS011;56841;55.964;37.674;2022-09-09T04:48:14;3.70;;;2.00;;
69621;SDS011;56841;55.964;37.674;2022-09-09T04:50:40;3.38;;;1.60;;
69621;SDS011;56841;55.964;37.674;2022-09-09T04:53:08;3.92;;;1.60;;
69621;SDS011;56841;55.964;37.674;2022-09-09T04:55:36;3.17;;;1.67;;
69621;SDS011;56841;55.964;37.674;2022-09-09T04:58:07;3.88;;;1.70;;
69621;SDS011;56841;55.964;37.674;2022-09-09T05:00:34;3.15;;;1.60;;
69621;SDS011;56841;55.964;37.674;2022-09-09T05:03:04;5.13;;;2.45;;
69621;SDS011;56841;55.964;37.674;2022-09-09T05:05:32;4.28;;;1.90;;
69621;SDS011;56841;55.964;37.674;2022-09-09T05:10:32;3.95;;;1.90;;
69621;SDS011;56841;55.964;37.674;2022-09-09T05:12:59;3.95;;;1.85;;
69621;SDS011;56841;55.964;37.674;2022-09-09T05:15:28;4.03;;;1.83;;
69621;SDS011;56841;55.964;37.674;2022-09-09T05:17:58;3.90;;;2.05;;
69621;SDS011;56841;55.964;37.674;2022-09-09T05:20:26;5.13;;;2.20;;
69621;SDS011;56841;55.964;37.674;2022-09-09T05:22:53;4.22;;;2.00;;
69621;SDS011;56841;55.964;37.674;2022-09-09T05:25:21;3.60;;;1.88;;
69621;SDS011;56841;55.964;37.674;2022-09-09T05:27:48;4.68;;;2.10;;
69621;SDS011;56841;55.964;37.674;2022-09-09T05:30:15;19.10;;;7.57;;
69621;SDS011;56841;55.964;37.674;2022-09-09T05:32:41;8.70;;;4.25;;
69621;SDS011;56841;55.964;37.674;2022-09-09T05:35:10;6.93;;;3.35;;
69621;SDS011;56841;55.964;37.674;2022-09-09T05:37:37;4.60;;;2.10;;
69621;SDS011;56841;55.964;37.674;2022-09-09T05:40:03;6.70;;;2.30;;
69621;SDS011;56841;55.964;37.674;2022-09-09T05:42:30;3.88;;;1.80;;
69621;SDS011;56841;55.964;37.674;2022-09-09T05:44:57;3.55;;;1.90;;
69621;SDS011;56841;55.964;37.674;2022-09-09T05:47:23;3.83;;;1.88;;
69621;SDS011;56841;55.964;37.674;2022-09-09T05:49:49;4.55;;;1.85;;
69621;SDS011;56841;55.964;37.674;2022-09-09T05:52:15;2.85;;;1.73;;
69621;SDS011;56841;55.964;37.674;2022-09-09T05:54:41;3.88;;;2.17;;
69621;SDS011;56841;55.964;37.674;2022-09-09T05:57:08;3.83;;;1.83;;
69621;SDS011;56841;55.964;37.674;2022-09-09T05:59:34;3.63;;;1.70;;
69621;SDS011;56841;55.964;37.674;2022-09-09T06:02:00;4.28;;;1.80;;
69621;SDS011;56841;55.964;37.674;2022-09-09T06:06:59;2.80;;;1.45;;
69621;SDS011;56841;55.964;37.674;2022-09-09T06:09:25;2.33;;;1.10;;
69621;SDS011;56841;55.964;37.674;2022-09-09T06:11:51;2.17;;;1.20;;
69621;SDS011;56841;55.964;37.674;2022-09-09T06:14:18;2.55;;;1.20;;
69621;SDS011;56841;55.964;37.674;2022-09-09T06:16:46;3.45;;;1.23;;
69621;SDS011;56841;55.964;37.674;2022-09-09T06:19:18;2.67;;;1.17;;
69621;SDS011;56841;55.964;37.674;2022-09-09T06:21:44;2.65;;;1.23;;
69621;SDS011;56841;55.964;37.674;2022-09-09T06:24:11;3.10;;;1.10;;
69621;SDS011;56841;55.964;37.674;2022-09-09T06:26:39;1.85;;;0.88;;
69621;SDS011;56841;55.964;37.674;2022-09-09T06:29:11;2.45;;;0.85;;
69621;SDS011;56841;55.964;37.674;2022-09-09T06:31:38;3.58;;;1.10;;
69621;SDS011;56841;55.964;37.674;2022-09-09T06:34:11;3.63;;;1.00;;
69621;SDS011;56841;55.964;37.674;2022-09-09T06:36:40;2.97;;;1.20;;
69621;SDS011;56841;55.964;37.674;2022-09-09T06:39:06;1.25;;;0.57;;
69621;SDS011;56841;55.964;37.674;2022-09-09T06:41:34;1.65;;;0.60;;
69621;SDS011;56841;55.964;37.674;2022-09-09T06:44:02;1.55;;;0.73;;
69621;SDS011;56841;55.964;37.674;2022-09-09T06:46:38;1.80;;;0.77;;
69621;SDS011;56841;55.964;37.674;2022-09-09T06:49:05;1.10;;;0.60;;
69621;SDS011;56841;55.964;37.674;2022-09-09T06:51:34;2.35;;;0.88;;
69621;SDS011;56841;55.964;37.674;2022-09-09T06:54:03;3.95;;;0.80;;
69621;SDS011;56841;55.964;37.674;2022-09-09T06:56:31;2.47;;;0.40;;
69621;SDS011;56841;55.964;37.674;2022-09-09T06:59:03;2.25;;;0.55;;
69621;SDS011;56841;55.964;37.674;2022-09-09T07:01:32;2.47;;;0.80;;
69621;SDS011;56841;55.964;37.674;2022-09-09T07:04:02;4.55;;;0.70;;
69621;SDS011;56841;55.964;37.674;2022-09-09T07:06:33;0.70;;;0.30;;
69621;SDS011;56841;55.964;37.674;2022-09-09T07:09:03;2.03;;;0.57;;
69621;SDS011;56841;55.964;37.674;2022-09-09T07:11:31;1.25;;;0.50;;
69621;SDS011;56841;55.964;37.674;2022-09-09T07:14:00;1.33;;;0.57;;
69621;SDS011;56841;55.964;37.674;2022-09-09T07:16:26;3.20;;;0.60;;
69621;SDS011;56841;55.964;37.674;2022-09-09T07:18:55;1.60;;;0.60;;
69621;SDS011;56841;55.964;37.674;2022-09-09T07:21:27;2.13;;;0.68;;
69621;SDS011;56841;55.964;37.674;2022-09-09T07:23:55;2.45;;;0.85;;
69621;SDS011;56841;55.964;37.674;2022-09-09T07:26:23;1.08;;;0.50;;
69621;SDS011;56841;55.964;37.674;2022-09-09T07:28:52;2.53;;;0.90;;
69621;SDS011;56841;55.964;37.674;2022-09-09T07:33:57;2.08;;;0.60;;
69621;SDS011;56841;55.964;37.674;2022-09-09T07:36:25;3.40;;;0.80;;
69621;SDS011;56841;55.964;37.674;2022-09-09T07:38:57;1.20;;;0.70;;
69621;SDS011;56841;55.964;37.674;2022-09-09T07:41:32;0.90;;;0.50;;
69621;SDS011;56841;55.964;37.674;2022-09-09T07:44:04;2.80;;;0.93;;
69621;SDS011;56841;55.964;37.674;2022-09-09T07:46:32;2.25;;;0.60;;
69621;SDS011;56841;55.964;37.674;2022-09-09T07:48:59;2.22;;;0.70;;
69621;SDS011;56841;55.964;37.674;2022-09-09T07:51:28;2.38;;;0.70;;
69621;SDS011;56841;55.964;37.674;2022-09-09T07:53:57;0.75;;;0.50;;
69621;SDS011;56841;55.964;37.674;2022-09-09T07:56:25;1.35;;;0.70;;
69621;SDS011;56841;55.964;37.674;2022-09-09T07:58:53;16.42;;;5.85;;
69621;SDS011;56841;55.964;37.674;2022-09-09T08:01:21;3.55;;;1.20;;
69621;SDS011;56841;55.964;37.674;2022-09-09T08:04:02;2.15;;;0.40;;
69621;SDS011;56841;55.964;37.674;2022-09-09T08:06:32;0.88;;;0.30;;
69621;SDS011;56841;55.964;37.674;2022-09-09T08:09:01;1.30;;;0.30;;
69621;SDS011;56841;55.964;37.674;2022-09-09T08:11:30;0.40;;;0.30;;
69621;SDS011;56841;55.964;37.674;2022-09-09T08:13:58;1.63;;;0.40;;
69621;SDS011;56841;55.964;37.674;2022-09-09T08:16:26;4.30;;;0.82;;
69621;SDS011;56841;55.964;37.674;2022-09-09T08:18:54;1.83;;;0.40;;
69621;SDS011;56841;55.964;37.674;2022-09-09T08:21:22;0.43;;;0.35;;
69621;SDS011;56841;55.964;37.674;2022-09-09T08:23:50;2.22;;;0.70;;
69621;SDS011;56841;55.964;37.674;2022-09-09T08:26:22;0.77;;;0.40;;
69621;SDS011;56841;55.964;37.674;2022-09-09T08:29:00;0.70;;;0.40;;
69621;SDS011;56841;55.964;37.674;2022-09-09T08:31:29;3.00;;;0.50;;
69621;SDS011;56841;55.964;37.674;2022-09-09T08:33:58;1.10;;;0.40;;
69621;SDS011;56841;55.964;37.674;2022-09-09T08:36:31;1.20;;;0.50;;
69621;SDS011;56841;55.964;37.674;2022-09-09T08:39:04;1.40;;;0.40;;
69621;SDS011;56841;55.964;37.674;2022-09-09T08:52:31;1.65;;;0.50;;
69621;SDS011;56841;55.964;37.674;2022-09-09T08:57:49;1.25;;;0.50;;
69621;SDS011;56841;55.964;37.674;2022-09-09T09:00:18;4.50;;;0.80;;
69621;SDS011;56841;55.964;37.674;2022-09-09T09:05:42;1.58;;;0.40;;
69621;SDS011;56841;55.964;37.674;2022-09-09T09:11:10;4.55;;;1.00;;
69621;SDS011;56841;55.964;37.674;2022-09-09T09:13:42;2.25;;;0.68;;
69621;SDS011;56841;55.964;37.674;2022-09-09T09:19:11;1.75;;;0.60;;
69621;SDS011;56841;55.964;37.674;2022-09-09T09:21:42;0.50;;;0.30;;
69621;SDS011;56841;55.964;37.674;2022-09-09T09:24:22;1.58;;;0.70;;
69621;SDS011;56841;55.964;37.674;2022-09-09T09:26:59;2.80;;;1.40;;
69621;SDS011;56841;55.964;37.674;2022-09-09T09:29:37;3.67;;;1.10;;
69621;SDS011;56841;55.964;37.674;2022-09-09T09:32:05;1.00;;;0.40;;
69621;SDS011;56841;55.964;37.674;2022-09-09T09:34:38;2.88;;;0.50;;
69621;SDS011;56841;55.964;37.674;2022-09-09T09:37:16;3.95;;;2.75;;
69621;SDS011;56841;55.964;37.674;2022-09-09T09:39:51;3.92;;;1.60;;
69621;SDS011;56841;55.964;37.674;2022-09-09T09:42:17;4.90;;;1.80;;
69621;SDS011;56841;55.964;37.674;2022-09-09T09:44:46;2.65;;;1.63;;
69621;SDS011;56841;55.964;37.674;2022-09-09T09:47:16;3.90;;;2.05;;
69621;SDS011;56841;55.964;37.674;2022-09-09T09:52:25;1.30;;;0.57;;
69621;SDS011;56841;55.964;37.674;2022-09-09T09:54:55;13.23;;;5.20;;
69621;SDS011;56841;55.964;37.674;2022-09-09T09:57:26;1.52;;;0.50;;
69621;SDS011;56841;55.964;37.674;2022-09-09T10:02:47;6.95;;;3.60;;
69621;SDS011;56841;55.964;37.674;2022-09-09T10:05:22;7.05;;;2.78;;
69621;SDS011;56841;55.964;37.674;2022-09-09T10:08:25;2.85;;;0.77;;
69621;SDS011;56841;55.964;37.674;2022-09-09T10:13:28;3.65;;;1.60;;
69621;SDS011;56841;55.964;37.674;2022-09-09T10:18:56;1.27;;;0.57;;
69621;SDS011;56841;55.964;37.674;2022-09-09T10:40:44;3.30;;;1.60;;
69621;SDS011;56841;55.964;37.674;2022-09-09T10:46:40;3.17;;;1.20;;
69621;SDS011;56841;55.964;37.674;2022-09-09T10:52:28;3.75;;;1.00;;
69621;SDS011;56841;55.964;37.674;2022-09-09T10:55:14;1.90;;;0.77;;
69621;SDS011;56841;55.964;37.674;2022-09-09T10:57:53;3.05;;;1.30;;
69621;SDS011;56841;55.964;37.674;2022-09-09T11:02:51;2.92;;;1.10;;
69621;SDS011;56841;55.964;37.674;2022-09-09T11:08:09;1.33;;;0.50;;
69621;SDS011;56841;55.964;37.674;2022-09-09T11:10:51;1.95;;;0.50;;
69621;SDS011;56841;55.964;37.674;2022-09-09T11:19:04;1.10;;;0.60;;
69621;SDS011;56841;55.964;37.674;2022-09-09T11:21:45;0.98;;;0.50;;
69621;SDS011;56841;55.964;37.674;2022-09-09T11:24:20;1.27;;;0.60;;
69621;SDS011;56841;55.964;37.674;2022-09-09T11:40:43;1.60;;;0.70;;
69621;SDS011;56841;55.964;37.674;2022-09-09T11:43:11;2.67;;;0.98;;
69621;SDS011;56841;55.964;37.674;2022-09-09T11:45:39;1.10;;;0.50;;
69621;SDS011;56841;55.964;37.674;2022-09-09T11:48:30;5.00;;;2.40;;
69621;SDS011;56841;55.964;37.674;2022-09-09T11:51:00;2.65;;;0.80;;
69621;SDS011;56841;55.964;37.674;2022-09-09T11:53:29;5.25;;;1.65;;
69621;SDS011;56841;55.964;37.674;2022-09-09T11:56:11;3.58;;;1.35;;
69621;SDS011;56841;55.964;37.674;2022-09-09T11:58:43;2.15;;;0.70;;
69621;SDS011;56841;55.964;37.674;2022-09-09T12:01:28;2.88;;;0.60;;
69621;SDS011;56841;55.964;37.674;2022-09-09T12:04:06;2.10;;;0.50;;
69621;SDS011;56841;55.964;37.674;2022-09-09T12:06:46;1.70;;;0.60;;
69621;SDS011;56841;55.964;37.674;2022-09-09T12:14:38;4.63;;;1.17;;
69621;SDS011;56841;55.964;37.674;2022-09-09T12:17:20;2.45;;;0.80;;
69621;SDS011;56841;55.964;37.674;2022-09-09T12:19:48;2.83;;;1.15;;
69621;SDS011;56841;55.964;37.674;2022-09-09T12:31:27;8.18;;;2.33;;
69621;SDS011;56841;55.964;37.674;2022-09-09T12:34:03;9.15;;;3.03;;
69621;SDS011;56841;55.964;37.674;2022-09-09T12:36:52;7.70;;;2.22;;
69621;SDS011;56841;55.964;37.674;2022-09-09T12:39:31;12.75;;;4.28;;
69621;SDS011;56841;55.964;37.674;2022-09-09T12:42:01;6.95;;;3.00;;
69621;SDS011;56841;55.964;37.674;2022-09-09T12:44:29;5.55;;;1.73;;
69621;SDS011;56841;55.964;37.674;2022-09-09T12:46:58;7.43;;;1.75;;
69621;SDS011;56841;55.964;37.674;2022-09-09T12:49:38;2.85;;;0.90;;
69621;SDS011;56841;55.964;37.674;2022-09-09T12:52:13;2.20;;;0.80;;
69621;SDS011;56841;55.964;37.674;2022-09-09T12:54:45;4.50;;;1.40;;
69621;SDS011;56841;55.964;37.674;2022-09-09T12:57:12;3.13;;;1.10;;
69621;SDS011;56841;55.964;37.674;2022-09-09T12:59:40;1.90;;;0.90;;
69621;SDS011;56841;55.964;37.674;2022-09-09T13:02:18;4.20;;;0.90;;
69621;SDS011;56841;55.964;37.674;2022-09-09T13:04:49;1.70;;;0.70;;
69621;SDS011;56841;55.964;37.674;2022-09-09T13:07:20;2.35;;;1.20;;
69621;SDS011;56841;55.964;37.674;2022-09-09T13:09:47;2.97;;;0.90;;
69621;SDS011;56841;55.964;37.674;2022-09-09T13:12:15;3.88;;;1.10;;
69621;SDS011;56841;55.964;37.674;2022-09-09T13:14:46;2.88;;;1.10;;
69621;SDS011;56841;55.964;37.674;2022-09-09T13:17:20;2.00;;;1.00;;
69621;SDS011;56841;55.964;37.674;2022-09-09T13:19:50;1.48;;;0.70;;
69621;SDS011;56841;55.964;37.674;2022-09-09T13:22:39;2.22;;;0.80;;
69621;SDS011;56841;55.964;37.674;2022-09-09T13:25:17;1.20;;;0.60;;
69621;SDS011;56841;55.964;37.674;2022-09-09T13:28:02;1.60;;;0.60;;
69621;SDS011;56841;55.964;37.674;2022-09-09T13:30:36;1.67;;;0.80;;
69621;SDS011;56841;55.964;37.674;2022-09-09T13:35:34;4.10;;;0.90;;
69621;SDS011;56841;55.964;37.674;2022-09-09T13:38:15;11.30;;;2.63;;
69621;SDS011;56841;55.964;37.674;2022-09-09T13:40:51;3.42;;;1.00;;
69621;SDS011;56841;55.964;37.674;2022-09-09T13:45:56;2.50;;;1.00;;
69621;SDS011;56841;55.964;37.674;2022-09-09T13:48:25;6.50;;;1.20;;
69621;SDS011;56841;55.964;37.674;2022-09-09T13:50:55;4.97;;;1.30;;
69621;SDS011;56841;55.964;37.674;2022-09-09T13:53:30;6.30;;;2.00;;
69621;SDS011;56841;55.964;37.674;2022-09-09T13:55:56;2.75;;;1.38;;
69621;SDS011;56841;55.964;37.674;2022-09-09T13:58:23;3.97;;;1.30;;
69621;SDS011;56841;55.964;37.674;2022-09-09T14:00:51;4.63;;;1.00;;
69621;SDS011;56841;55.964;37.674;2022-09-09T14:03:18;3.58;;;1.70;;
69621;SDS011;56841;55.964;37.674;2022-09-09T14:05:45;2.72;;;1.20;;
69621;SDS011;56841;55.964;37.674;2022-09-09T14:08:15;8.88;;;2.90;;
69621;SDS011;56841;55.964;37.674;2022-09-09T14:10:50;4.88;;;1.40;;
69621;SDS011;56841;55.964;37.674;2022-09-09T14:13:17;12.52;;;4.22;;
69621;SDS011;56841;55.964;37.674;2022-09-09T14:15:43;6.05;;;2.45;;
69621;SDS011;56841;55.964;37.674;2022-09-09T14:18:12;19.35;;;8.77;;
69621;SDS011;56841;55.964;37.674;2022-09-09T14:20:38;13.02;;;5.72;;
69621;SDS011;56841;55.964;37.674;2022-09-09T14:23:04;6.25;;;2.00;;
69621;SDS011;56841;55.964;37.674;2022-09-09T14:25:30;2.28;;;0.90;;
69621;SDS011;56841;55.964;37.674;2022-09-09T14:27:56;1.85;;;0.85;;
69621;SDS011;56841;55.964;37.674;2022-09-09T14:30:22;2.42;;;0.98;;
69621;SDS011;56841;55.964;37.674;2022-09-09T14:32:48;3.28;;;1.13;;
69621;SDS011;56841;55.964;37.674;2022-09-09T14:35:15;2.45;;;0.93;;
69621;SDS011;56841;55.964;37.674;2022-09-09T14:37:42;2.72;;;0.90;;
69621;SDS011;56841;55.964;37.674;2022-09-09T14:40:08;2.15;;;1.02;;
69621;SDS011;56841;55.964;37.674;2022-09-09T14:42:35;3.00;;;1.15;;
69621;SDS011;56841;55.964;37.674;2022-09-09T14:45:01;3.45;;;0.98;;
69621;SDS011;56841;55.964;37.674;2022-09-09T14:47:29;1.92;;;1.00;;
69621;SDS011;56841;55.964;37.674;2022-09-09T14:49:55;3.42;;;1.13;;
69621;SDS011;56841;55.964;37.674;2022-09-09T14:52:21;3.72;;;1.30;;
69621;SDS011;56841;55.964;37.674;2022-09-09T14:54:47;2.25;;;1.30;;
69621;SDS011;56841;55.964;37.674;2022-09-09T14:57:13;5.63;;;1.10;;
69621;SDS011;56841;55.964;37.674;2022-09-09T14:59:39;2.50;;;1.10;;
69621;SDS011;56841;55.964;37.674;2022-09-09T15:02:04;3.85;;;1.17;;
69621;SDS011;56841;55.964;37.674;2022-09-09T15:04:30;2.33;;;1.10;;
69621;SDS011;56841;55.964;37.674;2022-09-09T15:06:56;3.10;;;1.23;;
69621;SDS011;56841;55.964;37.674;2022-09-09T15:09:21;3.25;;;1.40;;
69621;SDS011;56841;55.964;37.674;2022-09-09T15:11:48;2.83;;;1.20;;
69621;SDS011;56841;55.964;37.674;2022-09-09T15:14:14;2.78;;;1.20;;
69621;SDS011;56841;55.964;37.674;2022-09-09T15:16:40;2.03;;;1.10;;
69621;SDS011;56841;55.964;37.674;2022-09-09T15:19:05;2.72;;;0.95;;
69621;SDS011;56841;55.964;37.674;2022-09-09T15:21:33;3.85;;;1.10;;
69621;SDS011;56841;55.964;37.674;2022-09-09T15:24:00;2.40;;;1.17;;
69621;SDS011;56841;55.964;37.674;2022-09-09T15:26:26;3.17;;;1.10;;
69621;SDS011;56841;55.964;37.674;2022-09-09T15:28:52;3.42;;;1.23;;
69621;SDS011;56841;55.964;37.674;2022-09-09T15:31:20;2.83;;;1.20;;
69621;SDS011;56841;55.964;37.674;2022-09-09T15:33:48;2.70;;;1.20;;
69621;SDS011;56841;55.964;37.674;2022-09-09T15:36:19;3.22;;;1.15;;
69621;SDS011;56841;55.964;37.674;2022-09-09T15:38:47;3.63;;;1.20;;
69621;SDS011;56841;55.964;37.674;2022-09-09T15:41:13;4.85;;;1.25;;
69621;SDS011;56841;55.964;37.674;2022-09-09T15:43:46;4.40;;;1.20;;
69621;SDS011;56841;55.964;37.674;2022-09-09T15:48:58;3.50;;;1.42;;
69621;SDS011;56841;55.964;37.674;2022-09-09T15:51:34;4.50;;;1.30;;
69621;SDS011;56841;55.964;37.674;2022-09-09T15:54:02;3.78;;;1.40;;
69621;SDS011;56841;55.964;37.674;2022-09-09T15:56:29;3.35;;;1.48;;
69621;SDS011;56841;55.964;37.674;2022-09-09T15:58:56;4.70;;;1.50;;
69621;SDS011;56841;55.964;37.674;2022-09-09T16:01:24;3.92;;;1.50;;
69621;SDS011;56841;55.964;37.674;2022-09-09T16:03:50;9.82;;;3.63;;
69621;SDS011;56841;55.964;37.674;2022-09-09T16:06:18;14.32;;;4.95;;
69621;SDS011;56841;55.964;37.674;2022-09-09T16:08:47;14.15;;;5.18;;
69621;SDS011;56841;55.964;37.674;2022-09-09T16:13:48;10.32;;;4.43;;
69621;SDS011;56841;55.964;37.674;2022-09-09T16:16:16;11.52;;;5.13;;
69621;SDS011;56841;55.964;37.674;2022-09-09T16:18:45;14.75;;;5.65;;
69621;SDS011;56841;55.964;37.674;2022-09-09T16:21:18;11.63;;;4.38;;
69621;SDS011;56841;55.964;37.674;2022-09-09T16:23:45;12.43;;;5.38;;
69621;SDS011;56841;55.964;37.674;2022-09-09T16:26:12;21.83;;;9.07;;
69621;SDS011;56841;55.964;37.674;2022-09-09T16:28:39;12.23;;;5.07;;
69621;SDS011;56841;55.964;37.674;2022-09-09T16:31:16;16.52;;;6.25;;
69621;SDS011;56841;55.964;37.674;2022-09-09T16:33:46;19.60;;;6.88;;
69621;SDS011;56841;55.964;37.674;2022-09-09T16:36:17;9.55;;;4.00;;
69621;SDS011;56841;55.964;37.674;2022-09-09T16:41:10;9.57;;;3.10;;
69621;SDS011;56841;55.964;37.674;2022-09-09T16:43:38;7.53;;;2.72;;
69621;SDS011;56841;55.964;37.674;2022-09-09T16:46:12;7.90;;;3.17;;
69621;SDS011;56841;55.964;37.674;2022-09-09T16:48:41;11.98;;;4.30;;
69621;SDS011;56841;55.964;37.674;2022-09-09T16:51:09;8.75;;;3.63;;
69621;SDS011;56841;55.964;37.674;2022-09-09T16:53:40;14.48;;;6.03;;
69621;SDS011;56841;55.964;37.674;2022-09-09T16:56:08;18.70;;;8.20;;
69621;SDS011;56841;55.964;37.674;2022-09-09T16:58:36;20.35;;;8.85;;
69621;SDS011;56841;55.964;37.674;2022-09-09T17:01:02;32.88;;;12.45;;
69621;SDS011;56841;55.964;37.674;2022-09-09T17:03:29;28.88;;;12.25;;
69621;SDS011;56841;55.964;37.674;2022-09-09T17:05:58;16.13;;;8.32;;
69621;SDS011;56841;55.964;37.674;2022-09-09T17:08:30;15.85;;;6.07;;
69621;SDS011;56841;55.964;37.674;2022-09-09T17:10:56;16.02;;;6.53;;
69621;SDS011;56841;55.964;37.674;2022-09-09T17:13:23;17.80;;;6.65;;
69621;SDS011;56841;55.964;37.674;2022-09-09T17:15:50;12.30;;;5.30;;
69621;SDS011;56841;55.964;37.674;2022-09-09T17:18:16;13.20;;;6.22;;
69621;SDS011;56841;55.964;37.674;2022-09-09T17:20:42;15.15;;;6.38;;
69621;SDS011;56841;55.964;37.674;2022-09-09T17:23:10;15.15;;;6.72;;
69621;SDS011;56841;55.964;37.674;2022-09-09T17:25:37;16.65;;;6.82;;
69621;SDS011;56841;55.964;37.674;2022-09-09T17:28:03;15.05;;;5.85;;
69621;SDS011;56841;55.964;37.674;2022-09-09T17:30:33;13.63;;;6.53;;
69621;SDS011;56841;55.964;37.674;2022-09-09T17:33:00;16.00;;;6.65;;
69621;SDS011;56841;55.964;37.674;2022-09-09T17:35:26;14.85;;;7.00;;
69621;SDS011;56841;55.964;37.674;2022-09-09T17:37:53;16.55;;;7.22;;
69621;SDS011;56841;55.964;37.674;2022-09-09T17:40:20;17.35;;;7.72;;